DW3092 Weather Reports


time (UTC)temp
C
wind
direction
speed
KPH
gust
KPH
rain 1hr
cm
rain 24hr
cm
rain mn
cm
humidity
%
barometer
mb
20240521040004 14 0 0.0 0.0 0.00 0.00 0.00 90 1014.4
20240521035713 14 0 0.0 0.0 0.00 0.00 0.00 90 1014.5
20240521035003 14 0 0.0 0.0 0.00 0.00 0.00 90 1014.4
20240521034713 14 0 0.0 0.0 0.00 0.00 0.00 90 1014.4
20240521034003 14 0 0.0 0.0 0.00 0.00 0.00 90 1014.4
20240521033503 14 0 0.0 0.0 0.00 0.00 0.00 90 1014.4
20240521033003 14 0 0.0 0.0 0.00 0.00 0.00 90 1014.5
20240521032503 14 0 0.0 0.0 0.00 0.00 0.00 90 1014.5
20240521032003 14 0 0.0 0.0 0.00 0.00 0.00 90 1014.6
20240521031503 14 0 0.0 0.0 0.00 0.00 0.00 90 1014.7
20240521031003 14 0 0.0 0.0 0.00 0.00 0.00 89 1014.7
20240521030503 14 0 0.0 0.0 0.00 0.00 0.00 89 1014.7
20240521030003 14 0 0.0 0.0 0.00 0.00 0.00 89 1014.6
20240521025503 14 0 0.0 0.0 0.00 0.00 0.00 88 1014.7
20240521025003 14 0 0.0 0.0 0.00 0.00 0.00 88 1014.7
20240521024503 14 0 0.0 0.0 0.00 0.00 0.00 88 1014.8
20240521024003 14 0 0.0 0.0 0.00 0.00 0.00 88 1014.8
20240521023503 14 0 0.0 0.0 0.00 0.00 0.00 87 1014.8
20240521023003 14 0 0.0 0.0 0.00 0.00 0.00 87 1014.8
20240521022503 14 0 0.0 0.0 0.00 0.00 0.00 87 1014.8
20240521022003 15 0 0.0 0.0 0.00 0.00 0.00 87 1014.7
20240521021503 15 0 0.0 0.0 0.00 0.00 0.00 87 1014.7
20240521021004 15 0 0.0 0.0 0.00 0.00 0.00 87 1014.7
20240521020503 15 0 0.0 0.0 0.00 0.00 0.00 87 1014.6
20240521020003 15 0 0.0 0.0 0.00 0.00 0.00 86 1014.7
20240521015503 15 0 0.0 0.0 0.00 0.00 0.00 86 1014.7
20240521015003 15 0 0.0 0.0 0.00 0.00 0.00 86 1014.7
20240521014503 15 0 0.0 0.0 0.00 0.00 0.00 86 1014.7
20240521014003 15 0 0.0 0.0 0.00 0.00 0.00 86 1014.7
20240521013503 15 0 0.0 0.0 0.00 0.00 0.00 85 1014.6
20240521013003 15 0 0.0 0.0 0.00 0.00 0.00 85 1014.7
20240521012503 15 0 0.0 0.0 0.00 0.00 0.00 85 1014.7
20240521012003 15 0 0.0 0.0 0.00 0.00 0.00 84 1014.7
20240521011712 16 0 0.0 0.0 0.00 0.00 0.00 84 1014.6
20240521011003 16 0 0.0 0.0 0.00 0.00 0.00 83 1014.5
20240521010712 16 0 0.0 0.0 0.00 0.00 0.00 83 1014.5
20240521010003 16 0 0.0 0.0 0.00 0.00 0.00 82 1014.4
20240521005503 16 0 0.0 0.0 0.00 0.00 0.00 81 1014.3
20240521005003 16 0 0.0 0.0 0.00 0.00 0.00 81 1014.2
20240521004503 17 0 0.0 0.0 0.00 0.00 0.00 81 1014.1
20240521004003 17 0 0.0 0.0 0.00 0.00 0.00 80 1014.0
20240521003712 17 0 0.0 0.0 0.00 0.00 0.00 80 1013.9
20240521003003 17 0 0.0 0.0 0.00 0.00 0.00 79 1013.9
20240521002503 17 0 0.0 0.0 0.00 0.00 0.00 79 1013.8
20240521002003 17 0 0.0 0.0 0.00 0.00 0.00 78 1013.7
20240521001503 18 0 0.0 0.0 0.00 0.00 0.00 78 1013.7
20240521001003 18 0 0.0 0.0 0.00 0.00 0.00 77 1013.8
20240521000503 18 0 0.0 0.0 0.00 0.00 0.00 77 1013.8
20240521000003 18 0 0.0 0.0 0.00 0.00 0.00 76 1013.7
20240520235712 18 0 0.0 0.0 0.00 0.00 0.00 76 1013.7
20240520235003 18 0 0.0 0.0 0.00 0.00 0.00 75 1013.7
20240520234714 19 0 0.0 0.0 0.00 0.00 0.00 74 1013.7
20240520234003 19 0 0.0 0.0 0.00 0.00 0.00 73 1013.8
20240520233503 20 0 0.0 0.0 0.00 0.00 0.00 73 1013.8
20240520233003 20 0 0.0 0.0 0.00 0.00 0.00 72 1013.9
20240520232503 20 0 0.0 0.0 0.00 0.00 0.00 71 1013.9
20240520232003 20 0 0.0 0.0 0.00 0.00 0.00 71 1013.9
20240520231503 21 169 0.0 3.2 0.00 0.00 0.00 70 1014.0
20240520231003 21 169 0.0 3.2 0.00 0.00 0.00 69 1014.0
20240520230503 21 0 0.0 0.0 0.00 0.00 0.00 68 1014.1
20240520230003 21 0 0.0 0.0 0.00 0.00 0.00 67 1014.1
20240520225503 21 0 0.0 0.0 0.00 0.00 0.00 67 1014.1
20240520225003 22 0 0.0 0.0 0.00 0.00 0.00 66 1014.1
20240520224714 22 0 0.0 0.0 0.00 0.00 0.00 66 1014.0
20240520224213 22 169 0.0 1.6 0.00 0.00 0.00 66 1014.0
20240520223714 22 169 0.0 1.6 0.00 0.00 0.00 65 1013.9
20240520223003 22 0 0.0 0.0 0.00 0.00 0.00 64 1014.0
20240520222713 22 169 0.0 3.2 0.00 0.00 0.00 65 1014.1
20240520222003 23 169 0.0 3.2 0.00 0.00 0.00 63 1014.1
20240520221503 23 170 1.6 8.0 0.00 0.00 0.00 62 1014.1
20240520221003 23 170 1.6 8.0 0.00 0.00 0.00 62 1014.1
20240520220503 23 171 0.0 3.2 0.00 0.00 0.00 63 1014.1
20240520220212 23 171 0.0 3.2 0.00 0.00 0.00 63 1014.2
20240520215503 23 0 0.0 0.0 0.00 0.00 0.00 62 1014.2
20240520215003 23 171 0.0 4.8 0.00 0.00 0.00 63 1014.3
20240520214504 23 171 0.0 4.8 0.00 0.00 0.00 62 1014.3
20240520214003 23 171 0.0 3.2 0.00 0.00 0.00 62 1014.3
20240520213713 23 171 0.0 3.2 0.00 0.00 0.00 61 1014.3
20240520213003 23 171 1.6 6.4 0.00 0.00 0.00 60 1014.4
20240520212503 23 171 1.6 6.4 0.00 0.00 0.00 60 1014.4
20240520212003 23 171 1.6 4.8 0.00 0.00 0.00 60 1014.3
20240520211503 23 171 0.0 3.2 0.00 0.00 0.00 60 1014.4
20240520211003 24 171 0.0 3.2 0.00 0.00 0.00 61 1014.4
20240520210503 23 171 0.0 3.2 0.00 0.00 0.00 59 1014.4
20240520210003 24 171 0.0 3.2 0.00 0.00 0.00 60 1014.5
20240520205503 23 171 0.0 4.8 0.00 0.00 0.00 60 1014.5
20240520205214 24 171 0.0 4.8 0.00 0.00 0.00 60 1014.5
20240520204503 24 171 0.0 4.8 0.00 0.00 0.00 60 1014.5
20240520204003 24 171 0.0 4.8 0.00 0.00 0.00 59 1014.4
20240520203503 24 172 1.6 4.8 0.00 0.00 0.00 59 1014.4
20240520203003 25 172 1.6 4.8 0.00 0.00 0.00 58 1014.5
20240520202503 24 173 0.0 4.8 0.00 0.00 0.00 60 1014.5
20240520202003 24 173 0.0 4.8 0.00 0.00 0.00 61 1014.7
20240520201503 24 173 0.0 4.8 0.00 0.00 0.00 59 1014.6
20240520201003 24 173 0.0 4.8 0.00 0.00 0.00 59 1014.6
20240520200503 24 173 0.0 4.8 0.00 0.00 0.00 60 1014.6
20240520200213 24 173 0.0 3.2 0.00 0.00 0.00 61 1014.6
20240520195503 23 0 0.0 0.0 0.00 0.00 0.00 59 1014.6
20240520195003 23 173 0.0 1.6 0.00 0.00 0.00 58 1014.7
20240520194503 23 173 0.0 1.6 0.00 0.00 0.00 62 1014.9
20240520194003 23 173 0.0 1.6 0.00 0.00 0.00 60 1014.9
20240520193503 23 173 0.0 4.8 0.00 0.00 0.00 60 1014.9
20240520193213 23 173 0.0 4.8 0.00 0.00 0.00 62 1015.0
20240520192503 23 173 0.0 1.6 0.00 0.00 0.00 60 1015.1
20240520192003 23 173 0.0 1.6 0.00 0.00 0.00 60 1015.2
20240520191503 23 0 0.0 0.0 0.00 0.00 0.00 61 1015.3
20240520191003 23 0 0.0 0.0 0.00 0.00 0.00 62 1015.3
20240520190503 23 0 0.0 0.0 0.00 0.00 0.00 61 1015.3
20240520190003 23 0 0.0 0.0 0.00 0.00 0.00 60 1015.3
20240520185503 23 0 0.0 0.0 0.00 0.00 0.00 61 1015.4
20240520185003 23 173 0.0 1.6 0.00 0.00 0.00 64 1015.3
20240520184503 23 173 0.0 1.6 0.00 0.00 0.00 61 1015.3
20240520184213 23 0 0.0 0.0 0.00 0.00 0.00 63 1015.3
20240520183503 23 0 0.0 0.0 0.00 0.00 0.00 63 1015.5
20240520183213 23 0 0.0 0.0 0.00 0.00 0.00 62 1015.5
20240520182503 23 172 0.0 3.2 0.00 0.00 0.00 61 1015.5
20240520182003 23 172 0.0 3.2 0.00 0.00 0.00 61 1015.5
20240520181503 23 0 0.0 0.0 0.00 0.00 0.00 61 1015.7
20240520181003 22 178 0.0 1.6 0.00 0.00 0.00 61 1015.7
20240520180503 22 178 0.0 1.6 0.00 0.00 0.00 64 1015.7
20240520180003 22 0 0.0 0.0 0.00 0.00 0.00 66 1015.8
20240520175503 22 0 0.0 0.0 0.00 0.00 0.00 64 1015.7
20240520175003 21 178 0.0 1.6 0.00 0.00 0.00 67 1015.8
20240520174714 21 178 0.0 3.2 0.00 0.00 0.00 66 1015.7
20240520174003 21 178 0.0 3.2 0.00 0.00 0.00 68 1015.7
20240520173503 21 0 0.0 0.0 0.00 0.00 0.00 68 1015.8
20240520173003 21 0 0.0 0.0 0.00 0.00 0.00 70 1015.9
20240520172503 21 0 0.0 0.0 0.00 0.00 0.00 69 1015.9
20240520172003 21 0 0.0 0.0 0.00 0.00 0.00 69 1015.9
20240520171503 21 0 0.0 0.0 0.00 0.00 0.00 69 1015.9
20240520171003 21 0 0.0 0.0 0.00 0.00 0.00 70 1015.9
20240520170503 20 0 0.0 0.0 0.00 0.00 0.00 72 1015.9
20240520170003 20 178 0.0 4.8 0.00 0.00 0.00 74 1016.0
20240520165503 19 178 0.0 4.8 0.00 0.00 0.00 75 1016.2
20240520165003 18 178 0.0 3.2 0.00 0.00 0.00 74 1016.2
20240520164503 18 178 0.0 1.6 0.00 0.00 0.00 73 1016.2
20240520164003 18 178 0.0 1.6 0.00 0.00 0.00 77 1016.2
20240520163503 18 178 0.0 4.8 0.00 0.00 0.00 77 1016.3
20240520163003 18 178 0.0 4.8 0.00 0.00 0.00 75 1016.3
20240520162503 18 0 0.0 0.0 0.00 0.00 0.00 78 1016.5
20240520162003 17 0 0.0 0.0 0.00 0.00 0.00 79 1016.5
20240520161503 17 178 0.0 4.8 0.00 0.00 0.00 79 1016.6
20240520161003 17 178 0.0 4.8 0.00 0.00 0.00 79 1016.6
20240520160503 17 0 0.0 0.0 0.00 0.00 0.00 81 1016.6
20240520160003 17 0 0.0 0.0 0.00 0.00 0.00 80 1016.6
20240520155503 16 0 0.0 0.0 0.00 0.00 0.00 81 1016.6
20240520155003 16 0 0.0 0.0 0.00 0.00 0.00 81 1016.6
20240520154713 16 0 0.0 0.0 0.00 0.00 0.00 80 1016.8
20240520154003 16 0 0.0 0.0 0.00 0.00 0.00 81 1016.6
20240520153503 16 0 0.0 0.0 0.00 0.00 0.00 82 1016.8
20240520153003 16 178 0.0 4.8 0.00 0.00 0.00 82 1016.8
20240520152503 16 178 0.0 4.8 0.00 0.00 0.00 81 1016.9
20240520152003 16 0 0.0 0.0 0.00 0.00 0.00 83 1017.0
20240520151503 16 0 0.0 0.0 0.00 0.00 0.00 82 1017.0
20240520151003 16 0 0.0 0.0 0.00 0.00 0.00 82 1016.9
20240520150503 15 0 0.0 0.0 0.00 0.00 0.00 83 1016.9
20240520150003 16 0 0.0 0.0 0.00 0.00 0.00 83 1016.8
20240520145503 16 178 0.0 1.6 0.00 0.03 0.00 83 1016.5
20240520145003 16 178 0.0 1.6 0.00 0.03 0.00 84 1016.5
20240520144503 16 0 0.0 0.0 0.00 0.03 0.00 84 1016.4
20240520144003 15 0 0.0 0.0 0.00 0.03 0.00 83 1016.3
20240520143503 15 0 0.0 0.0 0.00 0.03 0.00 85 1016.4
20240520143213 15 0 0.0 0.0 0.00 0.03 0.00 85 1016.4
20240520142503 15 0 0.0 0.0 0.00 0.03 0.00 84 1016.5
20240520142003 15 0 0.0 0.0 0.00 0.03 0.00 85 1016.4
20240520141503 15 0 0.0 0.0 0.00 0.03 0.00 85 1016.4
20240520141003 15 0 0.0 0.0 0.00 0.03 0.00 86 1016.4
20240520140503 15 0 0.0 0.0 0.00 0.03 0.00 86 1016.4
20240520140003 14 0 0.0 0.0 0.00 0.03 0.00 86 1016.5
20240520135503 14 0 0.0 0.0 0.00 0.03 0.00 87 1016.6
20240520135003 14 0 0.0 0.0 0.00 0.03 0.00 87 1016.6
20240520134503 14 0 0.0 0.0 0.00 0.03 0.00 88 1016.8
20240520134213 14 0 0.0 0.0 0.00 0.03 0.00 87 1016.9
20240520133503 14 0 0.0 0.0 0.00 0.03 0.00 87 1017.0
20240520133003 13 0 0.0 0.0 0.00 0.03 0.00 88 1017.0
20240520132503 13 0 0.0 0.0 0.00 0.03 0.00 88 1017.0
20240520132003 13 0 0.0 0.0 0.00 0.03 0.00 88 1017.0
20240520131503 13 0 0.0 0.0 0.00 0.03 0.00 89 1017.1
20240520131003 13 0 0.0 0.0 0.00 0.03 0.00 89 1017.1
20240520130503 13 0 0.0 0.0 0.00 0.03 0.00 89 1017.0
20240520130213 13 0 0.0 0.0 0.00 0.03 0.00 90 1017.1
20240520125503 13 0 0.0 0.0 0.00 0.03 0.00 90 1017.1
20240520125003 13 0 0.0 0.0 0.00 0.03 0.00 90 1017.1
20240520124503 13 0 0.0 0.0 0.00 0.03 0.00 91 1017.0
20240520124003 13 0 0.0 0.0 0.00 0.03 0.00 91 1017.1
20240520123503 13 0 0.0 0.0 0.00 0.03 0.00 92 1017.2
20240520123003 13 0 0.0 0.0 0.00 0.03 0.00 92 1017.2
20240520122503 13 0 0.0 0.0 0.00 0.03 0.00 92 1017.1
20240520122003 12 0 0.0 0.0 0.00 0.03 0.00 93 1017.0
20240520121503 12 0 0.0 0.0 0.00 0.03 0.00 93 1016.9
20240520121003 12 0 0.0 0.0 0.00 0.03 0.00 93 1016.9
20240520120714 12 0 0.0 0.0 0.00 0.03 0.00 93 1017.0
20240520120003 12 0 0.0 0.0 0.00 0.03 0.00 94 1016.9
20240520115503 12 0 0.0 0.0 0.00 0.03 0.00 94 1016.9
20240520115003 12 0 0.0 0.0 0.00 0.03 0.00 94 1016.9
20240520114503 12 0 0.0 0.0 0.00 0.03 0.00 94 1016.8
20240520114003 12 0 0.0 0.0 0.00 0.03 0.00 94 1016.8
20240520113503 12 0 0.0 0.0 0.00 0.03 0.00 94 1016.7
20240520113003 12 0 0.0 0.0 0.00 0.03 0.00 94 1016.6
20240520112503 12 0 0.0 0.0 0.00 0.03 0.00 95 1016.5
20240520112003 12 0 0.0 0.0 0.00 0.03 0.00 94 1016.4
20240520111503 12 0 0.0 0.0 0.00 0.03 0.00 95 1016.4
20240520111212 12 0 0.0 0.0 0.00 0.03 0.00 95 1016.4
20240520110503 12 0 0.0 0.0 0.00 0.03 0.00 95 1016.3
20240520110003 12 0 0.0 0.0 0.00 0.03 0.00 95 1016.4
20240520105503 12 0 0.0 0.0 0.00 0.03 0.00 95 1016.4
20240520105003 12 0 0.0 0.0 0.00 0.03 0.00 95 1016.4
20240520104503 12 0 0.0 0.0 0.00 0.03 0.00 95 1016.4
20240520104003 12 0 0.0 0.0 0.00 0.03 0.00 95 1016.4
20240520103503 12 0 0.0 0.0 0.00 0.03 0.00 95 1016.4
20240520103003 11 0 0.0 0.0 0.00 0.03 0.00 95 1016.4
20240520102713 11 0 0.0 0.0 0.00 0.03 0.00 95 1016.3
20240520102214 11 0 0.0 0.0 0.00 0.03 0.00 95 1016.3
20240520101503 11 0 0.0 0.0 0.00 0.03 0.00 95 1016.3
20240520101003 11 0 0.0 0.0 0.00 0.03 0.00 95 1016.2
20240520100503 11 0 0.0 0.0 0.00 0.03 0.00 95 1016.2
20240520100003 11 0 0.0 0.0 0.00 0.05 0.00 95 1016.1
20240520095503 11 0 0.0 0.0 0.00 0.05 0.00 95 1016.1
20240520095003 11 0 0.0 0.0 0.00 0.05 0.00 95 1016.1
20240520094503 11 0 0.0 0.0 0.00 0.05 0.00 95 1016.2
20240520094003 11 0 0.0 0.0 0.00 0.05 0.00 95 1016.1
20240520093503 11 0 0.0 0.0 0.00 0.05 0.00 95 1016.1
20240520093003 11 0 0.0 0.0 0.00 0.05 0.00 95 1016.1
20240520092503 11 0 0.0 0.0 0.00 0.05 0.00 95 1016.0
20240520092003 11 0 0.0 0.0 0.00 0.05 0.00 95 1015.9
20240520091503 11 0 0.0 0.0 0.00 0.05 0.00 95 1015.9
20240520091003 11 0 0.0 0.0 0.00 0.05 0.00 95 1016.0
20240520090503 11 0 0.0 0.0 0.00 0.05 0.00 95 1015.9
20240520090213 11 0 0.0 0.0 0.00 0.05 0.00 95 1016.0
20240520085503 11 0 0.0 0.0 0.00 0.05 0.00 95 1016.0
20240520085003 11 0 0.0 0.0 0.00 0.05 0.00 95 1016.0
20240520084503 11 0 0.0 0.0 0.00 0.05 0.00 95 1016.0
20240520084003 11 0 0.0 0.0 0.00 0.05 0.00 95 1016.0
20240520083503 11 0 0.0 0.0 0.00 0.05 0.00 95 1016.1
20240520083003 11 0 0.0 0.0 0.00 0.05 0.00 95 1016.0
20240520082503 11 0 0.0 0.0 0.00 0.05 0.00 95 1015.9
20240520082213 10 0 0.0 0.0 0.00 0.05 0.00 95 1015.9
20240520081503 10 0 0.0 0.0 0.00 0.05 0.00 95 1016.0
20240520081003 10 0 0.0 0.0 0.00 0.05 0.00 95 1016.0
20240520080714 10 0 0.0 0.0 0.00 0.05 0.00 95 1016.0
20240520080003 10 0 0.0 0.0 0.00 0.05 0.00 95 1016.0
20240520075503 10 0 0.0 0.0 0.00 0.05 0.00 95 1016.0
20240520075003 10 0 0.0 0.0 0.00 0.05 0.00 95 1015.9
20240520074714 10 0 0.0 0.0 0.00 0.05 0.00 95 1016.0
20240520074003 10 0 0.0 0.0 0.00 0.05 0.00 94 1015.9
20240520073503 10 0 0.0 0.0 0.00 0.05 0.00 94 1015.8
20240520073003 10 0 0.0 0.0 0.00 0.05 0.00 94 1015.8
20240520072714 10 0 0.0 0.0 0.00 0.05 0.00 94 1015.8
20240520072003 10 0 0.0 0.0 0.00 0.05 0.00 94 1015.7
20240520071714 10 0 0.0 0.0 0.00 0.05 0.00 94 1015.7
20240520071003 10 0 0.0 0.0 0.00 0.05 0.00 94 1015.7
20240520070503 10 0 0.0 0.0 0.00 0.05 0.00 94 1015.8
20240520070003 10 0 0.0 0.0 0.00 0.05 0.00 94 1015.8
20240520065503 10 0 0.0 0.0 0.00 0.05 0.00 94 1015.7
20240520065003 10 0 0.0 0.0 0.00 0.05 0.00 94 1015.7
20240520064503 10 0 0.0 0.0 0.00 0.05 0.00 94 1015.7
20240520064003 10 0 0.0 0.0 0.00 0.05 0.00 94 1015.8
20240520063503 10 0 0.0 0.0 0.00 0.05 0.00 94 1015.9
20240520063003 10 0 0.0 0.0 0.00 0.08 0.00 94 1016.1
20240520062503 10 0 0.0 0.0 0.00 0.08 0.00 94 1016.1
20240520062212 10 0 0.0 0.0 0.00 0.08 0.00 94 1016.2
20240520061503 10 0 0.0 0.0 0.00 0.08 0.00 94 1016.2
20240520061003 10 0 0.0 0.0 0.00 0.08 0.00 94 1016.2
20240520060503 10 0 0.0 0.0 0.00 0.08 0.00 94 1016.2
20240520060003 10 0 0.0 0.0 0.00 0.08 0.00 94 1016.3
20240520055503 10 0 0.0 0.0 0.00 0.08 0.00 94 1016.3
20240520055003 10 0 0.0 0.0 0.00 0.08 0.00 93 1016.3
20240520054503 10 0 0.0 0.0 0.00 0.08 0.00 93 1016.3
20240520054003 10 0 0.0 0.0 0.00 0.08 0.00 93 1016.3
20240520053503 10 0 0.0 0.0 0.00 0.08 0.00 93 1016.3
20240520053003 10 0 0.0 0.0 0.00 0.08 0.00 93 1016.3
20240520052503 10 0 0.0 0.0 0.00 0.08 0.00 93 1016.3
20240520052003 10 0 0.0 0.0 0.00 0.08 0.00 93 1016.3
20240520051713 10 0 0.0 0.0 0.00 0.08 0.00 94 1016.4
20240520051003 10 0 0.0 0.0 0.00 0.08 0.00 93 1016.5
20240520050503 10 0 0.0 0.0 0.00 0.08 0.00 93 1016.5
20240520050003 10 0 0.0 0.0 0.00 0.08 0.00 93 1016.4
20240520045713 10 0 0.0 0.0 0.00 0.08 0.00 93 1016.5
20240520045214 10 0 0.0 0.0 0.00 0.08 0.00 93 1016.5
20240520044503 10 0 0.0 0.0 0.00 0.08 0.00 93 1016.5
20240520044003 10 0 0.0 0.0 0.00 0.08 0.00 93 1016.5
20240520043503 10 0 0.0 0.0 0.00 0.08 0.00 93 1016.5
20240520043003 10 0 0.0 0.0 0.00 0.08 0.00 93 1016.6
20240520042503 10 0 0.0 0.0 0.00 0.08 0.00 93 1016.6
20240520042003 10 0 0.0 0.0 0.00 0.08 0.00 92 1016.5
20240520041503 10 0 0.0 0.0 0.00 0.08 0.00 92 1016.6
20240520041003 11 0 0.0 0.0 0.00 0.08 0.00 92 1016.5
20240520040503 11 0 0.0 0.0 0.00 0.08 0.00 92 1016.6